Hummelstown, Pennsylvania
Current Conditions -  °F | °C
As of 4:56 PM on Wednesday 22 Oct 2014 (Local Time) from KMDT Reporting Station
Overcast Overcast  
Wind Chill: 54°   Ceiling: 2500
Heat Index: 54°   Visibility: 10mi
Dew Point: 45°   Wind: 16mph
Humidity: 72%   Direction: 340°NNW
Pressure: 29.95"   Gusts: 25mph
Location:  40.27°N, 76.71°W
Report Text: KMDT 222056Z 34014G22KT 10SM BKN025 BKN070 OVC100 12/07 A2995 RMK AO2 SLP144 T01220072 55001
Loading
Personal Weather Stations






























Interactive Weather Map
Tropical Storm Tracking
New forecast layout! Learn more

10-Day Weather Forecast

Advertisements
Track Severe Weather on mobile